John James Audubon — WDE8037 — position and weather

sailwx.info

Track history (hours):
 
Tides and Currents Weather Stations Pressure Air Temp Water Temp Dewpoint Dewpoint Depression Visibility Wind Speed Wind Dir Waves Ship Positions

John James Audubon

Owner: Statue Cruises, Jersey City, NJ. More information available from US FCC via Universal Licensing System and Coast Guard Vessel Documentation Center.

Last reported at 2016-Dec-04 23:33 UTC. Time now 2016-Dec-08 09:56 UTC.
Position N 40°44' W 074°01'.

Length 37 m.

Type: Ship. MMSI: 367400770.

Date/timePositionNaut miles runAvg speedWind from/ knotsBaromVisibWave heightAir tempDewpointWater temp
2016-Dec-04 23:33N 40°44' W 074°01'2 2.4
2016-Dec-04 22:33N 40°42' W 074°01'1 1.2
2016-Dec-04 21:33N 40°42' W 074°00'0 0.0
2016-Dec-04 20:33N 40°42' W 074°00'1 1.4
2016-Dec-04 19:33N 40°41' W 074°02'1 1.4
2016-Dec-04 18:33N 40°42' W 074°00'0 0.0
2016-Dec-04 17:33N 40°42' W 074°00'2 2.0
2016-Dec-04 16:33N 40°41' W 074°02'2 2.0
2016-Dec-04 15:33N 40°42' W 074°00'0 0.0
2016-Dec-04 14:33N 40°42' W 074°00'2 1.6
2016-Dec-04 13:34N 40°44' W 074°01'0 0.0
2016-Dec-04 12:33N 40°44' W 074°01'0 0.0
2016-Dec-03 23:33N 40°44' W 074°01'2 2.4
2016-Dec-03 22:33N 40°42' W 074°01'1 1.2
2016-Dec-03 21:33N 40°42' W 074°00'0 0.0
2016-Dec-03 20:33N 40°42' W 074°00'1 1.5
2016-Dec-03 19:33N 40°41' W 074°02'1 1.5
2016-Dec-03 18:33N 40°42' W 074°00'0 0.0
2016-Dec-03 17:33N 40°42' W 074°00'1 1.4
2016-Dec-03 16:33N 40°41' W 074°02'1 1.4
2016-Dec-03 15:33N 40°42' W 074°00'0 0.0
2016-Dec-03 14:33N 40°42' W 074°00'  
2016-Nov-27 21:10N 40°44' W 074°01'2 2.6
2016-Nov-27 20:33N 40°42' W 074°00'0 0.0
2016-Nov-27 19:33N 40°42' W 074°00'1 1.4
2016-Nov-27 18:33N 40°41' W 074°02'1 1.4
2016-Nov-27 17:33N 40°42' W 074°00'0 0.0
2016-Nov-27 16:33N 40°42' W 074°00'1 1.4
2016-Nov-27 15:33N 40°41' W 074°02'1 0.8
2016-Nov-27 14:33N 40°42' W 074°01'2 1.8
2016-Nov-27 13:33N 40°44' W 074°01'1 0.1
2016-Nov-27 02:33N 40°43' W 074°01'1 0.9
2016-Nov-27 01:33N 40°42' W 074°01'4 4.2
2016-Nov-27 00:33N 40°46' W 074°00'2 0.7
2016-Nov-26 21:15N 40°44' W 074°01'2 2.3
2016-Nov-26 20:33N 40°42' W 074°00'0 0.0
2016-Nov-26 19:33N 40°42' W 074°00'2 1.7
2016-Nov-26 18:33N 40°41' W 074°01'2 1.7
2016-Nov-26 17:33N 40°42' W 074°00'0 0.0
2016-Nov-26 16:33N 40°42' W 074°00'2 1.6
2016-Nov-26 15:33N 40°41' W 074°01'2 1.6
2016-Nov-26 14:33N 40°42' W 074°00'1 1.2
2016-Nov-26 13:33N 40°42' W 074°02'2 1.6
2016-Nov-26 12:33N 40°44' W 074°01'0 0.0
2016-Nov-25 22:31N 40°44' W 074°01'2 2.6
2016-Nov-25 21:33N 40°42' W 074°02'1 1.4
2016-Nov-25 20:33N 40°42' W 074°00'0 0.0
2016-Nov-25 19:33N 40°42' W 074°00'1 1.4
2016-Nov-25 18:33N 40°41' W 074°02'1 1.4
2016-Nov-25 17:33N 40°42' W 074°00'0 0.0
2016-Nov-25 16:33N 40°42' W 074°00'1 1.3
2016-Nov-25 15:33N 40°41' W 074°02'1 1.3
2016-Nov-25 14:33N 40°42' W 074°00'2 1.6
2016-Nov-25 13:33N 40°44' W 074°01'  
Track history (hours):
 
Tides and Currents Weather Stations Pressure Air Temp Water Temp Dewpoint Dewpoint Depression Visibility Wind Speed Wind Dir Waves Ship Positions

John James Audubon

Owner: Statue Cruises, Jersey City, NJ. More information available from US FCC via Universal Licensing System and Coast Guard Vessel Documentation Center.

Last reported at 2016-Dec-04 23:33 UTC. Time now 2016-Dec-08 09:56 UTC.
Position N 40°44' W 074°01'.

Length 37 m.

Type: Ship. MMSI: 367400770.

Date/timePositionNaut miles runAvg speedWind from/ knotsBaromVisibWave heightAir tempDewpointWater temp
2016-Dec-04 23:33N 40°44' W 074°01'2 2.4
2016-Dec-04 22:33N 40°42' W 074°01'1 1.2
2016-Dec-04 21:33N 40°42' W 074°00'0 0.0
2016-Dec-04 20:33N 40°42' W 074°00'1 1.4
2016-Dec-04 19:33N 40°41' W 074°02'1 1.4
2016-Dec-04 18:33N 40°42' W 074°00'0 0.0
2016-Dec-04 17:33N 40°42' W 074°00'2 2.0
2016-Dec-04 16:33N 40°41' W 074°02'2 2.0
2016-Dec-04 15:33N 40°42' W 074°00'0 0.0
2016-Dec-04 14:33N 40°42' W 074°00'2 1.6
2016-Dec-04 13:34N 40°44' W 074°01'0 0.0
2016-Dec-04 12:33N 40°44' W 074°01'0 0.0
2016-Dec-03 23:33N 40°44' W 074°01'2 2.4
2016-Dec-03 22:33N 40°42' W 074°01'1 1.2
2016-Dec-03 21:33N 40°42' W 074°00'0 0.0
2016-Dec-03 20:33N 40°42' W 074°00'1 1.5
2016-Dec-03 19:33N 40°41' W 074°02'1 1.5
2016-Dec-03 18:33N 40°42' W 074°00'0 0.0
2016-Dec-03 17:33N 40°42' W 074°00'1 1.4
2016-Dec-03 16:33N 40°41' W 074°02'1 1.4
2016-Dec-03 15:33N 40°42' W 074°00'0 0.0
2016-Dec-03 14:33N 40°42' W 074°00'  
2016-Nov-27 21:10N 40°44' W 074°01'2 2.6
2016-Nov-27 20:33N 40°42' W 074°00'0 0.0
2016-Nov-27 19:33N 40°42' W 074°00'1 1.4
2016-Nov-27 18:33N 40°41' W 074°02'1 1.4
2016-Nov-27 17:33N 40°42' W 074°00'0 0.0
2016-Nov-27 16:33N 40°42' W 074°00'1 1.4
2016-Nov-27 15:33N 40°41' W 074°02'1 0.8
2016-Nov-27 14:33N 40°42' W 074°01'2 1.8
2016-Nov-27 13:33N 40°44' W 074°01'1 0.1
2016-Nov-27 02:33N 40°43' W 074°01'1 0.9
2016-Nov-27 01:33N 40°42' W 074°01'4 4.2
2016-Nov-27 00:33N 40°46' W 074°00'2 0.7
2016-Nov-26 21:15N 40°44' W 074°01'2 2.3
2016-Nov-26 20:33N 40°42' W 074°00'0 0.0
2016-Nov-26 19:33N 40°42' W 074°00'2 1.7
2016-Nov-26 18:33N 40°41' W 074°01'2 1.7
2016-Nov-26 17:33N 40°42' W 074°00'0 0.0
2016-Nov-26 16:33N 40°42' W 074°00'2 1.6
2016-Nov-26 15:33N 40°41' W 074°01'2 1.6
2016-Nov-26 14:33N 40°42' W 074°00'1 1.2
2016-Nov-26 13:33N 40°42' W 074°02'2 1.6
2016-Nov-26 12:33N 40°44' W 074°01'0 0.0
2016-Nov-25 22:31N 40°44' W 074°01'2 2.6
2016-Nov-25 21:33N 40°42' W 074°02'1 1.4
2016-Nov-25 20:33N 40°42' W 074°00'0 0.0
2016-Nov-25 19:33N 40°42' W 074°00'1 1.4
2016-Nov-25 18:33N 40°41' W 074°02'1 1.4
2016-Nov-25 17:33N 40°42' W 074°00'0 0.0
2016-Nov-25 16:33N 40°42' W 074°00'1 1.3
2016-Nov-25 15:33N 40°41' W 074°02'1 1.3
2016-Nov-25 14:33N 40°42' W 074°00'2 1.6
2016-Nov-25 13:33N 40°44' W 074°01'  

Dump ship's entire track history